Time;durP1;ratioP1;P1;durP2;ratioP2;P2;SDS_P1;SDS_P2;PMS_P1;PMS_P2;Temp;Humidity;BMP_temperature;BMP_pressure;BME280_temperature;BME280_humidity;BME280_pressure;Samples;Min_cycle;Max_cycle;Signal;HPM_P1;HPM_P2
2022/04/25 00:00:15;;;;;;;1.95;0.75;;;;;;;;;;5037795;28;20143;-64
2022/04/25 00:02:42;;;;;;;2.72;0.98;;;;;;;;;;5036340;28;20130;-65
2022/04/25 00:05:09;;;;;;;2.90;1.00;;;;;;;;;;5039194;28;20550;-65
2022/04/25 00:07:35;;;;;;;3.60;1.20;;;;;;;;;;5039937;28;20123;-66
2022/04/25 00:10:02;;;;;;;4.53;1.00;;;;;;;;;;5021342;28;20037;-66
2022/04/25 00:12:29;;;;;;;5.82;1.10;;;;;;;;;;5038926;28;20199;-65
2022/04/25 00:14:55;;;;;;;3.10;1.00;;;;;;;;;;5038807;28;20461;-66
2022/04/25 00:17:22;;;;;;;2.67;0.85;;;;;;;;;;5037582;28;20044;-64
2022/04/25 00:19:54;;;;;;;12.50;4.65;;;;;;;;;;5038883;28;20056;-66
2022/04/25 00:22:21;;;;;;;9.70;2.05;;;;;;;;;;5039313;28;20896;-62
2022/04/25 00:24:48;;;;;;;4.75;1.20;;;;;;;;;;5036268;28;20132;-62
2022/04/25 00:27:15;;;;;;;2.92;1.10;;;;;;;;;;5037487;28;20520;-62
2022/04/25 00:29:41;;;;;;;6.68;0.95;;;;;;;;;;5036124;28;20037;-62
2022/04/25 00:32:08;;;;;;;3.25;1.10;;;;;;;;;;5039549;28;20076;-62
2022/04/25 00:34:36;;;;;;;6.03;0.98;;;;;;;;;;5039230;28;20045;-62
2022/04/25 00:37:03;;;;;;;2.85;0.88;;;;;;;;;;5040373;28;20171;-63
2022/04/25 00:39:30;;;;;;;4.60;1.10;;;;;;;;;;5039267;28;20886;-63
2022/04/25 00:41:57;;;;;;;3.28;1.15;;;;;;;;;;5041101;28;20108;-62
2022/04/25 00:44:24;;;;;;;3.17;1.20;;;;;;;;;;5039363;28;20156;-64
2022/04/25 00:46:53;;;;;;;3.25;1.20;;;;;;;;;;5022498;28;20047;-60
2022/04/25 00:49:20;;;;;;;3.50;1.02;;;;;;;;;;5039692;28;20049;-63
2022/04/25 00:51:47;;;;;;;4.65;1.15;;;;;;;;;;5039820;28;20079;-63
2022/04/25 00:54:14;;;;;;;5.68;1.38;;;;;;;;;;5039121;28;20040;-62
2022/04/25 00:56:41;;;;;;;3.30;1.02;;;;;;;;;;5039551;28;20390;-62
2022/04/25 00:59:09;;;;;;;2.88;0.80;;;;;;;;;;5040211;28;20033;-61
2022/04/25 01:01:36;;;;;;;3.15;1.08;;;;;;;;;;5039464;28;20119;-62
2022/04/25 01:04:03;;;;;;;6.25;1.42;;;;;;;;;;5040320;28;20106;-62
2022/04/25 01:06:30;;;;;;;3.88;1.10;;;;;;;;;;5038817;28;20111;-62
2022/04/25 01:08:57;;;;;;;3.35;1.00;;;;;;;;;;5038719;28;20036;-62
2022/04/25 01:11:24;;;;;;;3.05;0.90;;;;;;;;;;5038755;28;20041;-63
2022/04/25 01:13:50;;;;;;;3.60;1.27;;;;;;;;;;5021586;28;20057;-62
2022/04/25 01:16:17;;;;;;;3.22;1.25;;;;;;;;;;5040940;28;20123;-62
2022/04/25 01:18:44;;;;;;;2.33;0.75;;;;;;;;;;5039769;28;20043;-64
2022/04/25 01:21:11;;;;;;;3.30;1.17;;;;;;;;;;5040043;28;20049;-62
2022/04/25 01:29:09;;;;;;;3.45;1.00;;;;;;;;;;5042143;28;20044;-63
2022/04/25 01:31:37;;;;;;;2.95;1.10;;;;;;;;;;5039902;28;20105;-64
2022/04/25 01:34:04;;;;;;;4.43;2.00;;;;;;;;;;5040559;28;20116;-62
2022/04/25 01:36:31;;;;;;;7.07;3.28;;;;;;;;;;5023233;28;20048;-61
2022/04/25 01:38:57;;;;;;;4.35;1.80;;;;;;;;;;5041315;28;20060;-64
2022/04/25 01:41:24;;;;;;;4.85;1.63;;;;;;;;;;5036764;28;20493;-64
2022/04/25 01:43:51;;;;;;;5.50;1.45;;;;;;;;;;5039154;28;20036;-64
2022/04/25 01:46:18;;;;;;;5.45;2.15;;;;;;;;;;5042255;28;20055;-64
2022/04/25 01:48:45;;;;;;;7.13;2.40;;;;;;;;;;5021985;28;20102;-64
2022/04/25 01:51:11;;;;;;;5.68;2.30;;;;;;;;;;5040618;28;20244;-66
2022/04/25 01:53:38;;;;;;;6.40;2.70;;;;;;;;;;5039340;28;21843;-64
2022/04/25 01:56:05;;;;;;;6.30;2.78;;;;;;;;;;5040551;28;20041;-63
2022/04/25 01:58:32;;;;;;;11.35;2.92;;;;;;;;;;5039719;28;20489;-63
2022/04/25 02:00:58;;;;;;;9.52;4.45;;;;;;;;;;5039760;28;20053;-63
2022/04/25 02:03:26;;;;;;;12.68;5.32;;;;;;;;;;5039223;28;20039;-64
2022/04/25 02:05:53;;;;;;;7.93;3.17;;;;;;;;;;5040237;28;20382;-64
2022/04/25 02:08:19;;;;;;;5.75;2.67;;;;;;;;;;5039439;28;20048;-65
2022/04/25 02:11:19;;;;;;;7.03;2.35;;;;;;;;;;5039356;28;20101;-66
2022/04/25 02:13:33;;;;;;;5.60;1.88;;;;;;;;;;5039748;28;20480;-67
2022/04/25 02:15:59;;;;;;;4.75;1.60;;;;;;;;;;5039553;28;20036;-67
2022/04/25 02:18:26;;;;;;;3.72;1.58;;;;;;;;;;5038033;28;20444;-68
2022/04/25 02:20:53;;;;;;;5.63;1.67;;;;;;;;;;5038597;28;20504;-67
2022/04/25 02:23:20;;;;;;;3.50;1.20;;;;;;;;;;5037941;28;20111;-67
2022/04/25 02:25:47;;;;;;;5.75;1.35;;;;;;;;;;5038026;28;20482;-67
2022/04/25 02:28:14;;;;;;;5.45;1.83;;;;;;;;;;5039571;28;20440;-68
2022/04/25 02:30:40;;;;;;;3.20;1.40;;;;;;;;;;5038424;28;20037;-62
2022/04/25 02:33:07;;;;;;;3.67;1.23;;;;;;;;;;5038236;28;20040;-63
2022/04/25 02:35:34;;;;;;;6.50;1.40;;;;;;;;;;5037783;28;20044;-62
2022/04/25 02:38:01;;;;;;;4.05;1.40;;;;;;;;;;5020558;28;20547;-67
2022/04/25 02:40:27;;;;;;;5.40;2.20;;;;;;;;;;5037493;28;20052;-64
2022/04/25 02:42:54;;;;;;;6.93;1.50;;;;;;;;;;5037554;28;20108;-63
2022/04/25 02:45:21;;;;;;;4.35;1.40;;;;;;;;;;5038452;28;20470;-63
2022/04/25 02:47:48;;;;;;;6.72;1.52;;;;;;;;;;5038179;28;20033;-63
2022/04/25 02:50:14;;;;;;;8.73;3.38;;;;;;;;;;5039053;28;20045;-62
2022/04/25 02:52:41;;;;;;;4.72;1.80;;;;;;;;;;5036605;28;20049;-62
2022/04/25 02:55:09;;;;;;;6.68;1.63;;;;;;;;;;5038389;28;20049;-63
2022/04/25 02:57:36;;;;;;;7.25;2.03;;;;;;;;;;5038503;28;20048;-62
2022/04/25 03:00:03;;;;;;;3.70;1.60;;;;;;;;;;5038337;28;20068;-63
2022/04/25 03:02:30;;;;;;;6.07;1.75;;;;;;;;;;5036194;28;20060;-61
2022/04/25 03:04:56;;;;;;;4.63;1.70;;;;;;;;;;5039586;28;20041;-63
2022/04/25 03:07:23;;;;;;;5.88;2.10;;;;;;;;;;5020314;28;20504;-62
2022/04/25 03:09:50;;;;;;;8.20;2.13;;;;;;;;;;5038400;28;20068;-63
2022/04/25 03:12:18;;;;;;;5.07;1.90;;;;;;;;;;5038445;28;20044;-63
2022/04/25 03:14:45;;;;;;;9.95;2.10;;;;;;;;;;5038326;28;20052;-63
2022/04/25 03:17:13;;;;;;;7.07;2.42;;;;;;;;;;5038440;28;20132;-63
2022/04/25 03:19:39;;;;;;;8.45;2.47;;;;;;;;;;5036825;28;20196;-63
2022/04/25 03:22:06;;;;;;;4.80;2.38;;;;;;;;;;5038473;28;20041;-63
2022/04/25 03:24:34;;;;;;;7.18;2.20;;;;;;;;;;5038076;28;20095;-62
2022/04/25 03:27:00;;;;;;;5.85;2.10;;;;;;;;;;5038588;28;20040;-63
2022/04/25 03:29:27;;;;;;;4.70;2.00;;;;;;;;;;5037806;28;20040;-63
2022/04/25 03:31:54;;;;;;;4.70;1.50;;;;;;;;;;5037304;28;20048;-63
2022/04/25 03:34:20;;;;;;;5.32;1.63;;;;;;;;;;5036836;28;20152;-63
2022/04/25 03:36:54;;;;;;;11.85;3.20;;;;;;;;;;5036786;28;20037;-63
2022/04/25 03:39:21;;;;;;;4.97;1.67;;;;;;;;;;5036012;28;20043;-63
2022/04/25 03:41:48;;;;;;;5.03;1.40;;;;;;;;;;5037731;28;20045;-63
2022/04/25 03:44:15;;;;;;;6.40;1.48;;;;;;;;;;5037676;28;20045;-62
2022/04/25 03:46:42;;;;;;;7.05;1.85;;;;;;;;;;5038107;28;20052;-63
2022/04/25 03:49:09;;;;;;;6.90;1.45;;;;;;;;;;5038759;28;20405;-64
2022/04/25 03:51:36;;;;;;;4.82;1.40;;;;;;;;;;5037314;28;20455;-63
2022/04/25 03:54:02;;;;;;;5.43;1.45;;;;;;;;;;5037288;28;20045;-64
2022/04/25 03:59:14;;;;;;;3.20;1.30;;;;;;;;;;5038118;28;20109;-61
2022/04/25 04:01:42;;;;;;;3.47;1.10;;;;;;;;;;5037093;28;20048;-62
2022/04/25 04:04:08;;;;;;;3.40;1.15;;;;;;;;;;5037367;28;20037;-63
2022/04/25 04:06:37;;;;;;;3.58;1.20;;;;;;;;;;5038574;28;20141;-63
2022/04/25 04:09:44;;;;;;;3.13;1.05;;;;;;;;;;5041842;28;20045;-62
2022/04/25 04:11:52;;;;;;;3.58;1.00;;;;;;;;;;5040599;28;20057;-63
2022/04/25 04:14:19;;;;;;;4.13;1.05;;;;;;;;;;5042084;28;20140;-63
2022/04/25 04:16:45;;;;;;;3.15;1.10;;;;;;;;;;5040411;28;20154;-64
2022/04/25 04:19:12;;;;;;;4.75;1.23;;;;;;;;;;5041640;28;20045;-64
2022/04/25 04:21:39;;;;;;;2.80;1.05;;;;;;;;;;5041094;28;20041;-64
2022/04/25 04:24:06;;;;;;;6.68;1.35;;;;;;;;;;5021326;28;20571;-65
2022/04/25 04:26:32;;;;;;;4.45;1.30;;;;;;;;;;5020257;28;20042;-64
2022/04/25 04:28:59;;;;;;;7.68;1.15;;;;;;;;;;5021437;28;20037;-64
2022/04/25 04:31:26;;;;;;;3.53;1.08;;;;;;;;;;5020707;28;20785;-64
2022/04/25 04:33:52;;;;;;;5.85;1.40;;;;;;;;;;5021302;28;20041;-63
2022/04/25 04:36:19;;;;;;;5.63;1.20;;;;;;;;;;5021178;28;20046;-63
2022/04/25 04:38:46;;;;;;;3.65;1.27;;;;;;;;;;5020889;28;20045;-62
2022/04/25 04:41:13;;;;;;;8.63;1.35;;;;;;;;;;5022319;28;20437;-63
2022/04/25 04:43:40;;;;;;;3.80;1.10;;;;;;;;;;5019099;28;21412;-62
2022/04/25 04:46:06;;;;;;;3.63;1.05;;;;;;;;;;5020966;28;20037;-63
2022/04/25 04:48:33;;;;;;;5.32;1.00;;;;;;;;;;5020532;28;20087;-63
2022/04/25 04:51:00;;;;;;;5.55;1.05;;;;;;;;;;5021389;28;20034;-62
2022/04/25 04:53:27;;;;;;;5.43;1.55;;;;;;;;;;5020347;28;20072;-63
2022/04/25 04:55:54;;;;;;;4.40;1.30;;;;;;;;;;5020757;28;20116;-62
2022/04/25 04:58:21;;;;;;;10.07;1.35;;;;;;;;;;5020147;28;20042;-64
2022/04/25 05:00:48;;;;;;;3.67;1.15;;;;;;;;;;5020619;28;20045;-63
2022/04/25 05:03:15;;;;;;;4.32;1.30;;;;;;;;;;5020394;28;20898;-63
2022/04/25 05:05:45;;;;;;;5.50;1.50;;;;;;;;;;5019150;28;20060;-63
2022/04/25 05:08:12;;;;;;;5.05;1.27;;;;;;;;;;5020370;28;20053;-64
2022/04/25 05:10:39;;;;;;;6.00;1.42;;;;;;;;;;5001171;28;20065;-63
2022/04/25 05:13:06;;;;;;;5.32;1.23;;;;;;;;;;5019256;28;20173;-63
2022/04/25 05:15:32;;;;;;;10.23;1.67;;;;;;;;;;5019199;28;20045;-63
2022/04/25 05:18:00;;;;;;;5.32;1.15;;;;;;;;;;5019311;28;20045;-63
2022/04/25 05:20:28;;;;;;;3.97;1.20;;;;;;;;;;5017974;28;20413;-63
2022/04/25 05:22:55;;;;;;;7.60;1.58;;;;;;;;;;5029576;28;20133;-63
2022/04/25 05:25:24;;;;;;;3.00;1.10;;;;;;;;;;5039044;28;20041;-63
2022/04/25 05:27:55;;;;;;;3.63;1.15;;;;;;;;;;5038801;28;20037;-63
2022/04/25 05:30:23;;;;;;;5.57;1.20;;;;;;;;;;5038583;28;20044;-64
2022/04/25 05:32:50;;;;;;;5.63;1.13;;;;;;;;;;5039546;28;20033;-63
2022/04/25 05:35:21;;;;;;;5.55;1.30;;;;;;;;;;5038399;28;20048;-64
2022/04/25 05:37:48;;;;;;;9.60;1.80;;;;;;;;;;5038948;28;20549;-64
2022/04/25 05:40:19;;;;;;;3.83;1.13;;;;;;;;;;5036861;28;20080;-64
2022/04/25 05:42:46;;;;;;;5.75;1.27;;;;;;;;;;5039226;28;20037;-63
2022/04/25 05:45:14;;;;;;;4.57;1.30;;;;;;;;;;5039524;28;20064;-63
2022/04/25 05:47:42;;;;;;;3.65;1.20;;;;;;;;;;5042642;28;20045;-64
2022/04/25 05:52:58;;;;;;;4.70;1.20;;;;;;;;;;5046381;28;20107;-64
2022/04/25 05:55:25;;;;;;;5.68;1.33;;;;;;;;;;5043576;28;21775;-64
2022/04/25 05:57:52;;;;;;;3.13;1.10;;;;;;;;;;5043903;28;20048;-63
2022/04/25 06:00:19;;;;;;;3.38;1.30;;;;;;;;;;5049588;28;20064;-62
2022/04/25 06:02:49;;;;;;;6.32;1.45;;;;;;;;;;5050318;28;20043;-62
2022/04/25 06:05:16;;;;;;;4.75;1.30;;;;;;;;;;5053514;28;20037;-63
2022/04/25 06:07:45;;;;;;;3.90;1.35;;;;;;;;;;5052227;28;20063;-62
2022/04/25 06:10:12;;;;;;;5.28;1.48;;;;;;;;;;5055606;28;20033;-62
2022/04/25 06:12:48;;;;;;;6.93;1.60;;;;;;;;;;5054429;28;20037;-62
2022/04/25 06:15:16;;;;;;;4.47;1.30;;;;;;;;;;5055777;28;20040;-61
2022/04/25 06:17:43;;;;;;;6.65;1.50;;;;;;;;;;5054558;28;20029;-62
2022/04/25 06:20:10;;;;;;;4.75;1.40;;;;;;;;;;5056297;28;20056;-62
2022/04/25 06:22:38;;;;;;;4.15;1.20;;;;;;;;;;5048576;28;20087;-62
2022/04/25 06:25:05;;;;;;;6.97;1.30;;;;;;;;;;5036200;28;20052;-62
2022/04/25 06:27:33;;;;;;;4.70;1.30;;;;;;;;;;5034734;28;20034;-62
2022/04/25 06:30:00;;;;;;;4.45;1.60;;;;;;;;;;5018216;28;20073;-62
2022/04/25 06:32:27;;;;;;;7.22;1.38;;;;;;;;;;5036303;28;20026;-63
2022/04/25 06:34:53;;;;;;;6.68;1.50;;;;;;;;;;5037823;28;20037;-62
2022/04/25 06:37:20;;;;;;;10.05;1.52;;;;;;;;;;5039346;28;20048;-62
2022/04/25 06:39:47;;;;;;;8.98;1.48;;;;;;;;;;5038192;28;20056;-63
2022/04/25 06:42:13;;;;;;;6.13;1.60;;;;;;;;;;5037467;28;20052;-62
2022/04/25 06:44:40;;;;;;;5.65;1.30;;;;;;;;;;5035469;28;20064;-62
2022/04/25 06:47:07;;;;;;;4.45;1.15;;;;;;;;;;5034921;28;20599;-62
2022/04/25 06:49:34;;;;;;;6.47;1.45;;;;;;;;;;5035777;28;20124;-62
2022/04/25 06:52:01;;;;;;;6.15;1.30;;;;;;;;;;5018899;28;20088;-63
2022/04/25 06:54:28;;;;;;;6.88;1.45;;;;;;;;;;5036549;28;20030;-63
2022/04/25 06:56:56;;;;;;;5.03;1.40;;;;;;;;;;5035774;28;20068;-63
2022/04/25 06:59:24;;;;;;;6.50;1.50;;;;;;;;;;5033966;28;20032;-63
2022/04/25 07:01:51;;;;;;;6.10;1.70;;;;;;;;;;5033122;28;20033;-64
2022/04/25 07:04:18;;;;;;;8.55;2.10;;;;;;;;;;5034186;28;20638;-64
2022/04/25 07:06:45;;;;;;;3.78;1.52;;;;;;;;;;5006868;28;20415;-63
2022/04/25 07:09:15;;;;;;;3.47;1.30;;;;;;;;;;5035623;28;20037;-63
2022/04/25 07:11:43;;;;;;;5.82;1.58;;;;;;;;;;5028028;28;20057;-63
2022/04/25 07:14:14;;;;;;;4.68;1.42;;;;;;;;;;5031988;28;20109;-63
2022/04/25 07:16:45;;;;;;;5.07;1.55;;;;;;;;;;5025050;28;22131;-63
2022/04/25 07:19:15;;;;;;;4.70;1.30;;;;;;;;;;5024676;28;20052;-63
2022/04/25 07:29:57;;;;;;;5.43;1.55;;;;;;;;;;5043979;28;20063;-63
2022/04/25 07:32:24;;;;;;;6.55;1.85;;;;;;;;;;5043390;28;20037;-63
2022/04/25 07:34:51;;;;;;;5.13;1.75;;;;;;;;;;5046042;28;20052;-64
2022/04/25 07:37:22;;;;;;;3.78;1.63;;;;;;;;;;5045523;28;20375;-64
2022/04/25 07:39:49;;;;;;;9.80;2.08;;;;;;;;;;5043247;28;20520;-64
2022/04/25 07:42:18;;;;;;;6.40;1.77;;;;;;;;;;5045496;28;20057;-64
2022/04/25 07:44:45;;;;;;;8.45;2.03;;;;;;;;;;5027409;28;20033;-64
2022/04/25 07:47:12;;;;;;;3.80;1.50;;;;;;;;;;5045264;28;20060;-64
2022/04/25 07:49:40;;;;;;;4.65;1.88;;;;;;;;;;5044185;28;20037;-64
2022/04/25 07:52:07;;;;;;;8.48;2.10;;;;;;;;;;5044478;28;20037;-65
2022/04/25 07:54:34;;;;;;;4.47;1.67;;;;;;;;;;5043906;28;20150;-64
2022/04/25 07:57:03;;;;;;;7.45;1.75;;;;;;;;;;5044384;28;20872;-65
2022/04/25 07:59:30;;;;;;;5.93;1.73;;;;;;;;;;5044048;28;20607;-64
2022/04/25 08:01:56;;;;;;;8.88;2.00;;;;;;;;;;5039173;28;20041;-64
2022/04/25 08:04:23;;;;;;;6.05;2.30;;;;;;;;;;5040182;28;20120;-64
2022/04/25 08:06:50;;;;;;;7.45;2.35;;;;;;;;;;5041398;28;20056;-65
2022/04/25 08:09:17;;;;;;;5.88;2.03;;;;;;;;;;5040188;28;20137;-65
2022/04/25 08:11:44;;;;;;;4.72;1.73;;;;;;;;;;5040808;28;20060;-64
2022/04/25 08:19:40;;;;;;;7.55;2.00;;;;;;;;;;5041689;28;20048;-64
2022/04/25 08:22:09;;;;;;;8.48;2.20;;;;;;;;;;5038830;28;20045;-64
2022/04/25 08:24:36;;;;;;;4.90;1.90;;;;;;;;;;5040806;28;20052;-64
2022/04/25 08:27:09;;;;;;;6.43;2.10;;;;;;;;;;5041116;28;20096;-64
2022/04/25 08:29:36;;;;;;;4.95;1.80;;;;;;;;;;5040146;28;20644;-64
2022/04/25 08:32:03;;;;;;;5.38;2.03;;;;;;;;;;5040550;28;20047;-64
2022/04/25 08:34:29;;;;;;;6.40;2.30;;;;;;;;;;5040188;28;20037;-64
2022/04/25 08:36:56;;;;;;;7.80;2.10;;;;;;;;;;5040408;28;20347;-64
2022/04/25 08:39:23;;;;;;;4.55;1.88;;;;;;;;;;5039041;28;20029;-64
2022/04/25 08:42:00;;;;;;;6.03;2.15;;;;;;;;;;5039917;28;20037;-64
2022/04/25 08:44:26;;;;;;;10.38;2.20;;;;;;;;;;5040333;28;20519;-64
2022/04/25 08:46:55;;;;;;;7.20;2.10;;;;;;;;;;5040993;28;20032;-64
2022/04/25 08:49:22;;;;;;;7.07;2.35;;;;;;;;;;5041123;28;20041;-64
2022/04/25 08:51:58;;;;;;;6.07;2.33;;;;;;;;;;5040109;28;20176;-64
2022/04/25 08:54:29;;;;;;;6.50;2.40;;;;;;;;;;5042200;28;20045;-64
2022/04/25 08:56:56;;;;;;;6.93;2.20;;;;;;;;;;5041034;28;20076;-65
2022/04/25 08:59:24;;;;;;;10.15;2.72;;;;;;;;;;5039820;28;20045;-64
2022/04/25 09:01:51;;;;;;;8.73;2.63;;;;;;;;;;5040987;28;20591;-65
2022/04/25 09:04:18;;;;;;;5.82;2.13;;;;;;;;;;5042821;28;20044;-64
2022/04/25 09:06:46;;;;;;;6.57;2.20;;;;;;;;;;5043504;28;20397;-64
2022/04/25 09:09:13;;;;;;;5.85;2.30;;;;;;;;;;5041713;28;20037;-65
2022/04/25 09:14:25;;;;;;;6.50;2.20;;;;;;;;;;5041025;28;20064;-65
2022/04/25 09:16:52;;;;;;;5.93;2.13;;;;;;;;;;5040983;28;20116;-63
2022/04/25 09:19:19;;;;;;;7.50;2.30;;;;;;;;;;5041143;28;20462;-65
2022/04/25 09:21:46;;;;;;;4.20;1.80;;;;;;;;;;5038173;28;20037;-65
2022/04/25 09:24:29;;;;;;;6.18;2.08;;;;;;;;;;5020265;28;20450;-65
2022/04/25 09:27:08;;;;;;;6.60;2.28;;;;;;;;;;5019342;28;20075;-65
2022/04/25 09:29:35;;;;;;;5.22;1.83;;;;;;;;;;5022053;28;20292;-65
2022/04/25 09:32:02;;;;;;;5.30;2.05;;;;;;;;;;5021250;28;20061;-64
2022/04/25 09:37:15;;;;;;;4.68;1.50;;;;;;;;;;5020611;28;20726;-65
2022/04/25 09:39:42;;;;;;;4.43;2.00;;;;;;;;;;5020056;28;20478;-64
2022/04/25 09:42:09;;;;;;;7.15;1.88;;;;;;;;;;5019605;28;20045;-65
2022/04/25 09:44:56;;;;;;;8.57;2.13;;;;;;;;;;5020857;28;20136;-64
2022/04/25 09:47:25;;;;;;;9.18;2.30;;;;;;;;;;5019078;28;20517;-64
2022/04/25 09:49:59;;;;;;;5.72;2.00;;;;;;;;;;5019449;28;20095;-63
2022/04/25 09:52:26;;;;;;;4.40;1.63;;;;;;;;;;5018060;28;20044;-64
2022/04/25 09:54:53;;;;;;;3.88;1.65;;;;;;;;;;5020109;28;20034;-61
2022/04/25 09:57:30;;;;;;;4.43;1.80;;;;;;;;;;5019849;28;20037;-61
2022/04/25 09:59:57;;;;;;;4.40;1.80;;;;;;;;;;5019045;28;20050;-63
2022/04/25 10:02:23;;;;;;;6.07;1.85;;;;;;;;;;5018563;28;20458;-62
2022/04/25 10:04:50;;;;;;;6.30;1.75;;;;;;;;;;5020114;28;20037;-62
2022/04/25 10:07:17;;;;;;;5.53;1.95;;;;;;;;;;5019316;28;20034;-62
2022/04/25 10:09:45;;;;;;;7.13;2.33;;;;;;;;;;5018390;28;20521;-62
2022/04/25 10:12:12;;;;;;;5.85;2.00;;;;;;;;;;5019057;28;20046;-62
2022/04/25 10:14:39;;;;;;;5.47;1.92;;;;;;;;;;5019174;28;20033;-62
2022/04/25 10:17:07;;;;;;;7.85;2.10;;;;;;;;;;5019313;28;20029;-62
2022/04/25 10:19:34;;;;;;;7.65;2.10;;;;;;;;;;5018374;28;20033;-62
2022/04/25 10:22:00;;;;;;;3.72;1.60;;;;;;;;;;5021582;28;20056;-62
2022/04/25 10:24:27;;;;;;;7.47;1.98;;;;;;;;;;5038498;28;20057;-63
2022/04/25 10:26:54;;;;;;;8.98;2.20;;;;;;;;;;5039238;28;20041;-63
2022/04/25 10:29:27;;;;;;;6.03;2.25;;;;;;;;;;5038432;28;20048;-61
2022/04/25 10:31:58;;;;;;;3.53;1.60;;;;;;;;;;5038861;28;21094;-61
2022/04/25 10:34:45;;;;;;;9.13;2.40;;;;;;;;;;5038715;28;20095;-63
2022/04/25 10:37:30;;;;;;;6.85;2.00;;;;;;;;;;5037943;28;20045;-62
2022/04/25 10:39:57;;;;;;;10.02;1.98;;;;;;;;;;5038195;28;20176;-63
2022/04/25 10:45:09;;;;;;;5.32;2.30;;;;;;;;;;5038056;28;21024;-62
2022/04/25 10:47:36;;;;;;;8.05;2.03;;;;;;;;;;5037358;28;20163;-63
2022/04/25 10:50:07;;;;;;;6.25;2.30;;;;;;;;;;5039385;28;20751;-64
2022/04/25 10:52:37;;;;;;;5.63;2.20;;;;;;;;;;5038318;28;20041;-62
2022/04/25 10:55:13;;;;;;;7.32;2.00;;;;;;;;;;5039080;28;20049;-63
2022/04/25 10:57:59;;;;;;;7.57;2.00;;;;;;;;;;5037963;28;20032;-62
2022/04/25 11:00:41;;;;;;;5.07;1.90;;;;;;;;;;5024662;28;20122;-63
2022/04/25 11:03:12;;;;;;;5.10;2.13;;;;;;;;;;5037917;28;20052;-62
2022/04/25 11:05:40;;;;;;;6.43;2.22;;;;;;;;;;5036661;28;20036;-62
2022/04/25 11:08:19;;;;;;;5.50;2.55;;;;;;;;;;5038493;28;20036;-62
2022/04/25 11:10:59;;;;;;;8.15;2.97;;;;;;;;;;5020272;28;20076;-62
2022/04/25 11:13:28;;;;;;;6.90;2.30;;;;;;;;;;5037680;28;20052;-62
2022/04/25 11:15:58;;;;;;;8.68;2.88;;;;;;;;;;5038685;28;20033;-62
2022/04/25 11:21:08;;;;;;;4.50;2.17;;;;;;;;;;5038177;28;20057;-62
2022/04/25 11:23:36;;;;;;;17.27;2.60;;;;;;;;;;5022382;28;20053;-63
2022/04/25 11:26:04;;;;;;;5.38;2.13;;;;;;;;;;5001822;28;20456;-63
2022/04/25 11:28:33;;;;;;;10.75;2.65;;;;;;;;;;5018369;28;20390;-62
2022/04/25 11:31:29;;;;;;;10.68;2.28;;;;;;;;;;5020331;28;20095;-62
2022/04/25 11:34:02;;;;;;;4.10;2.00;;;;;;;;;;5003198;28;20128;-62
2022/04/25 11:36:30;;;;;;;7.72;2.35;;;;;;;;;;5017593;28;20043;-64
2022/04/25 11:41:44;;;;;;;4.80;2.13;;;;;;;;;;5017260;28;20060;-63
2022/04/25 11:44:10;;;;;;;8.38;2.20;;;;;;;;;;5019410;28;20063;-62
2022/04/25 11:46:38;;;;;;;6.07;2.40;;;;;;;;;;5017667;28;20053;-63
2022/04/25 11:49:06;;;;;;;5.93;2.42;;;;;;;;;;5018977;28;20044;-63
2022/04/25 11:51:34;;;;;;;7.32;2.53;;;;;;;;;;5018775;28;20387;-63
2022/04/25 11:54:04;;;;;;;11.05;2.47;;;;;;;;;;5018867;28;20041;-63
2022/04/25 11:56:32;;;;;;;9.73;2.45;;;;;;;;;;5018601;28;20037;-62
2022/04/25 11:58:59;;;;;;;7.75;2.10;;;;;;;;;;5021292;28;20045;-62
2022/04/25 12:01:32;;;;;;;5.05;2.20;;;;;;;;;;5019405;28;20076;-62
2022/04/25 12:04:17;;;;;;;8.38;2.50;;;;;;;;;;5019363;28;20046;-64
2022/04/25 12:06:48;;;;;;;5.85;2.03;;;;;;;;;;5018133;28;20045;-62
2022/04/25 12:17:39;;;;;;;10.05;2.65;;;;;;;;;;5002138;28;20082;-62
2022/04/25 12:20:07;;;;;;;8.95;2.30;;;;;;;;;;5017966;28;20053;-63
2022/04/25 12:22:35;;;;;;;7.00;2.78;;;;;;;;;;5024781;28;20049;-63
2022/04/25 12:25:33;;;;;;;6.72;3.00;;;;;;;;;;5038441;28;20474;-62
2022/04/25 12:28:18;;;;;;;7.90;2.97;;;;;;;;;;5018392;28;20152;-66
2022/04/25 12:30:55;;;;;;;10.63;4.05;;;;;;;;;;5041229;28;20128;-63
2022/04/25 12:33:23;;;;;;;7.97;2.78;;;;;;;;;;5041290;28;20091;-62
2022/04/25 12:35:51;;;;;;;8.30;2.80;;;;;;;;;;5041462;28;20203;-61
2022/04/25 12:38:35;;;;;;;12.77;3.00;;;;;;;;;;5042131;28;20150;-62
2022/04/25 12:41:01;;;;;;;;;;;;;;;;;;5042275;28;20053;-63
2022/04/25 12:43:54;;;;;;;9.50;2.63;;;;;;;;;;5041269;28;19917;-63
2022/04/25 12:46:40;;;;;;;9.60;2.65;;;;;;;;;;5039647;28;20049;-63
2022/04/25 12:49:08;;;;;;;8.63;2.63;;;;;;;;;;5041702;28;20135;-63
2022/04/25 12:51:39;;;;;;;20.02;3.05;;;;;;;;;;5041473;28;20494;-63
2022/04/25 12:54:07;;;;;;;11.95;3.60;;;;;;;;;;5040281;28;20041;-63
2022/04/25 12:56:35;;;;;;;12.00;3.28;;;;;;;;;;5041700;28;20044;-62
2022/04/25 12:59:03;;;;;;;7.63;2.53;;;;;;;;;;5041267;28;20125;-63
2022/04/25 13:01:34;;;;;;;12.90;3.10;;;;;;;;;;5041489;28;20041;-64
2022/04/25 13:04:21;;;;;;;15.10;3.58;;;;;;;;;;5043159;28;20037;-65
2022/04/25 13:06:48;;;;;;;11.48;3.10;;;;;;;;;;5040483;28;20124;-61
2022/04/25 13:09:15;;;;;;;15.30;3.42;;;;;;;;;;5041415;28;20047;-62
2022/04/25 13:11:42;;;;;;;14.23;3.03;;;;;;;;;;5041356;28;20127;-63
2022/04/25 13:14:09;;;;;;;8.85;3.03;;;;;;;;;;5041472;28;20040;-62
2022/04/25 13:16:38;;;;;;;9.55;3.22;;;;;;;;;;5041721;28;20097;-66
2022/04/25 13:19:05;;;;;;;5.90;2.85;;;;;;;;;;5023989;28;20041;-62
2022/04/25 13:21:36;;;;;;;22.13;6.97;;;;;;;;;;5040275;28;20053;-62
2022/04/25 13:24:03;;;;;;;11.32;3.38;;;;;;;;;;5041533;28;20521;-61
2022/04/25 13:26:30;;;;;;;13.40;3.28;;;;;;;;;;5040652;28;20041;-63
2022/04/25 13:28:57;;;;;;;7.57;3.00;;;;;;;;;;5041874;28;20144;-62
2022/04/25 13:31:24;;;;;;;8.40;3.30;;;;;;;;;;5042884;28;20149;-63
2022/04/25 13:33:50;;;;;;;13.18;3.00;;;;;;;;;;5041758;28;20871;-63
2022/04/25 13:36:17;;;;;;;11.20;2.97;;;;;;;;;;5043397;28;20465;-63
2022/04/25 13:38:44;;;;;;;16.13;3.25;;;;;;;;;;5041030;28;21767;-63
2022/04/25 13:41:11;;;;;;;7.25;2.97;;;;;;;;;;5041563;28;20068;-63
2022/04/25 13:43:37;;;;;;;8.93;2.85;;;;;;;;;;5040327;28;20044;-63
2022/04/25 13:46:04;;;;;;;16.80;3.00;;;;;;;;;;5041881;28;20039;-63
2022/04/25 13:48:31;;;;;;;9.98;3.92;;;;;;;;;;5040890;28;20106;-63
2022/04/25 13:50:59;;;;;;;12.60;3.28;;;;;;;;;;5040040;28;20120;-64
2022/04/25 13:53:25;;;;;;;13.25;3.47;;;;;;;;;;5021551;28;20456;-61
2022/04/25 13:55:52;;;;;;;10.70;3.78;;;;;;;;;;5040600;28;20033;-62
2022/04/25 13:58:19;;;;;;;10.90;2.90;;;;;;;;;;5040789;28;20041;-63
2022/04/25 14:00:46;;;;;;;11.23;3.15;;;;;;;;;;5021649;28;20140;-61
2022/04/25 14:03:13;;;;;;;12.68;3.45;;;;;;;;;;5041230;28;20045;-61
2022/04/25 14:05:40;;;;;;;9.15;3.67;;;;;;;;;;5039815;28;20041;-61
2022/04/25 14:08:08;;;;;;;9.15;3.30;;;;;;;;;;5040874;28;20433;-61
2022/04/25 14:10:37;;;;;;;11.73;3.20;;;;;;;;;;5040167;28;20041;-61
2022/04/25 14:13:05;;;;;;;12.55;3.30;;;;;;;;;;5040155;28;20075;-61
2022/04/25 14:15:32;;;;;;;10.52;3.03;;;;;;;;;;5040485;28;20041;-61
2022/04/25 14:17:59;;;;;;;21.92;3.15;;;;;;;;;;5039883;28;20033;-61
2022/04/25 14:20:25;;;;;;;8.80;3.17;;;;;;;;;;5039483;28;21130;-61
2022/04/25 14:22:54;;;;;;;12.02;3.33;;;;;;;;;;5039780;28;20155;-61
2022/04/25 14:25:22;;;;;;;10.43;2.70;;;;;;;;;;5039448;28;20029;-61
2022/04/25 14:27:48;;;;;;;11.07;2.60;;;;;;;;;;5039647;28;20048;-63
2022/04/25 14:30:15;;;;;;;8.07;2.78;;;;;;;;;;5041430;28;20033;-61
2022/04/25 14:32:42;;;;;;;9.85;3.15;;;;;;;;;;5038723;28;20044;-62
2022/04/25 14:35:09;;;;;;;8.95;2.85;;;;;;;;;;5040130;28;20045;-62
2022/04/25 14:37:36;;;;;;;6.65;2.47;;;;;;;;;;5020956;28;20624;-62
2022/04/25 14:40:03;;;;;;;11.07;2.85;;;;;;;;;;5039173;28;20135;-61
2022/04/25 14:42:30;;;;;;;6.93;2.50;;;;;;;;;;5039175;28;20114;-61
2022/04/25 14:44:56;;;;;;;7.88;2.78;;;;;;;;;;5021327;28;20041;-61
2022/04/25 14:47:23;;;;;;;13.35;2.67;;;;;;;;;;5039086;28;20041;-61
2022/04/25 14:55:21;;;;;;;7.05;2.40;;;;;;;;;;5039664;28;20060;-60
2022/04/25 14:57:50;;;;;;;11.13;2.90;;;;;;;;;;5038613;28;20049;-62
2022/04/25 15:00:20;;;;;;;5.95;2.75;;;;;;;;;;5039577;28;20049;-62
2022/04/25 15:02:47;;;;;;;8.80;2.30;;;;;;;;;;5037044;28;20056;-62
2022/04/25 15:05:14;;;;;;;10.10;2.50;;;;;;;;;;5037026;28;20043;-62
2022/04/25 15:07:42;;;;;;;6.97;2.22;;;;;;;;;;5036756;28;20040;-61
2022/04/25 15:10:09;;;;;;;7.03;2.58;;;;;;;;;;5038681;28;20039;-62
2022/04/25 15:12:36;;;;;;;6.93;2.33;;;;;;;;;;5038546;28;20140;-62
2022/04/25 15:15:03;;;;;;;7.30;2.45;;;;;;;;;;5039260;28;20604;-62
2022/04/25 15:17:29;;;;;;;8.77;2.63;;;;;;;;;;5038161;28;20079;-62
2022/04/25 15:19:56;;;;;;;6.25;2.58;;;;;;;;;;5041430;28;20037;-62
2022/04/25 15:22:23;;;;;;;6.75;2.10;;;;;;;;;;5041197;28;20057;-62
2022/04/25 15:24:50;;;;;;;7.95;2.38;;;;;;;;;;5040179;28;20079;-62
2022/04/25 15:27:19;;;;;;;7.43;2.47;;;;;;;;;;5040109;28;20037;-63
2022/04/25 15:29:46;;;;;;;7.40;2.08;;;;;;;;;;5040003;28;20056;-62
2022/04/25 15:32:13;;;;;;;9.65;2.25;;;;;;;;;;5039523;28;20121;-63
2022/04/25 15:34:40;;;;;;;11.27;2.15;;;;;;;;;;5038070;28;20127;-63
2022/04/25 15:37:07;;;;;;;8.07;2.30;;;;;;;;;;5038966;28;20115;-63
2022/04/25 15:39:35;;;;;;;5.50;2.30;;;;;;;;;;5038971;28;20037;-62